createdAt,value
2022-12-25T00:01:11.523Z,100.00
2022-12-25T00:03:38.783Z,100.00
2022-12-25T00:06:05.677Z,100.00
2022-12-25T00:08:32.421Z,100.00
2022-12-25T00:11:05.013Z,100.00
2022-12-25T00:13:31.613Z,100.00
2022-12-25T00:15:58.090Z,100.00
2022-12-25T00:18:24.565Z,100.00
2022-12-25T00:21:02.608Z,100.00
2022-12-25T00:23:29.862Z,100.00
2022-12-25T00:25:56.646Z,100.00
2022-12-25T00:28:24.494Z,100.00
2022-12-25T00:30:51.601Z,100.00
2022-12-25T00:33:18.588Z,100.00
2022-12-25T00:35:45.016Z,100.00
2022-12-25T00:38:11.438Z,100.00
2022-12-25T00:40:44.295Z,100.00
2022-12-25T00:43:11.063Z,100.00
2022-12-25T00:45:37.597Z,100.00
2022-12-25T00:48:04.416Z,100.00
2022-12-25T00:50:30.997Z,100.00
2022-12-25T00:52:57.427Z,100.00
2022-12-25T00:55:23.852Z,100.00
2022-12-25T00:57:52.964Z,100.00
2022-12-25T01:00:19.553Z,100.00
2022-12-25T01:02:46.047Z,100.00
2022-12-25T01:05:12.826Z,100.00
2022-12-25T01:07:39.305Z,100.00
2022-12-25T01:10:24.841Z,100.00
2022-12-25T01:12:51.676Z,100.00
2022-12-25T01:15:18.749Z,100.00
2022-12-25T01:17:45.491Z,100.00
2022-12-25T01:20:32.164Z,100.00
2022-12-25T01:22:58.603Z,100.00
2022-12-25T01:25:25.041Z,100.00
2022-12-25T01:27:54.951Z,100.00
2022-12-25T01:30:21.411Z,100.00
2022-12-25T01:32:47.839Z,100.00
2022-12-25T01:35:14.213Z,100.00
2022-12-25T01:37:40.664Z,100.00
2022-12-25T01:40:08.194Z,100.00
2022-12-25T01:42:34.684Z,100.00
2022-12-25T01:45:24.220Z,100.00
2022-12-25T01:47:50.728Z,100.00
2022-12-25T01:50:17.322Z,100.00
2022-12-25T01:52:44.379Z,100.00
2022-12-25T01:55:11.748Z,100.00
2022-12-25T01:57:39.239Z,100.00
2022-12-25T02:00:07.369Z,100.00
2022-12-25T02:02:34.820Z,100.00
2022-12-25T02:05:22.683Z,100.00
2022-12-25T02:07:49.752Z,100.00
2022-12-25T02:10:16.971Z,100.00
2022-12-25T02:12:45.030Z,100.00
2022-12-25T02:15:14.550Z,100.00
2022-12-25T02:17:56.139Z,100.00
2022-12-25T02:20:47.204Z,100.00
2022-12-25T02:23:42.183Z,100.00
2022-12-25T02:26:11.556Z,100.00
2022-12-25T02:28:47.802Z,100.00
2022-12-25T02:31:23.700Z,100.00
2022-12-25T02:34:08.177Z,100.00
2022-12-25T02:36:50.152Z,100.00
2022-12-25T02:39:44.315Z,100.00
2022-12-25T02:42:15.047Z,100.00
2022-12-25T02:45:02.501Z,100.00
2022-12-25T02:47:54.818Z,100.00
2022-12-25T02:50:40.329Z,100.00
2022-12-25T02:53:40.163Z,100.00
2022-12-25T02:56:25.242Z,100.00
2022-12-25T02:59:10.337Z,100.00
2022-12-25T03:01:56.024Z,100.00
2022-12-25T03:04:43.658Z,100.00
2022-12-25T03:07:12.251Z,100.00
2022-12-25T03:10:00.222Z,100.00
2022-12-25T03:12:29.577Z,100.00
2022-12-25T03:15:14.519Z,100.00
2022-12-25T03:17:40.988Z,100.00
2022-12-25T03:20:26.454Z,100.00
2022-12-25T03:23:12.100Z,100.00
2022-12-25T03:25:57.128Z,100.00
2022-12-25T03:28:23.523Z,100.00
2022-12-25T03:31:13.327Z,100.00
2022-12-25T03:34:24.484Z,100.00
2022-12-25T03:37:21.473Z,100.00
2022-12-25T03:40:26.067Z,100.00
2022-12-25T03:43:26.562Z,100.00
2022-12-25T03:46:16.688Z,100.00
2022-12-25T03:49:04.195Z,100.00
2022-12-25T03:51:52.250Z,100.00
2022-12-25T03:54:40.405Z,100.00
2022-12-25T03:57:25.674Z,100.00
2022-12-25T04:00:10.891Z,100.00
2022-12-25T04:02:56.378Z,100.00
2022-12-25T04:05:41.602Z,100.00
2022-12-25T04:08:26.945Z,100.00
2022-12-25T04:11:12.131Z,100.00
2022-12-25T04:13:57.040Z,100.00
2022-12-25T04:16:41.911Z,100.00
2022-12-25T04:19:28.195Z,100.00
2022-12-25T04:22:13.308Z,100.00
2022-12-25T04:24:57.978Z,100.00
2022-12-25T04:27:42.810Z,100.00
2022-12-25T04:30:28.049Z,100.00
2022-12-25T04:33:16.935Z,100.00
2022-12-25T04:36:08.681Z,100.00
2022-12-25T04:38:35.898Z,100.00
2022-12-25T04:41:03.008Z,100.00
2022-12-25T04:43:29.770Z,100.00
2022-12-25T04:45:57.820Z,100.00
2022-12-25T04:48:24.839Z,100.00
2022-12-25T04:50:51.292Z,100.00
2022-12-25T04:53:17.883Z,100.00
2022-12-25T04:55:44.395Z,100.00
2022-12-25T04:58:10.826Z,100.00
2022-12-25T05:00:37.244Z,100.00
2022-12-25T05:03:03.811Z,100.00
2022-12-25T05:05:30.320Z,100.00
2022-12-25T05:07:57.149Z,100.00
2022-12-25T05:10:24.140Z,100.00
2022-12-25T05:12:50.920Z,100.00
2022-12-25T05:15:17.504Z,100.00
2022-12-25T05:17:43.928Z,100.00
2022-12-25T05:20:10.396Z,100.00
2022-12-25T05:22:36.782Z,100.00
2022-12-25T05:25:03.268Z,100.00
2022-12-25T05:27:29.695Z,100.00
2022-12-25T05:29:56.093Z,100.00
2022-12-25T05:32:22.503Z,100.00
2022-12-25T05:34:48.915Z,100.00
2022-12-25T05:37:15.328Z,100.00
2022-12-25T05:39:41.767Z,100.00
2022-12-25T05:42:08.162Z,100.00
2022-12-25T05:44:34.539Z,100.00
2022-12-25T05:47:01.052Z,100.00
2022-12-25T05:49:27.543Z,100.00
2022-12-25T05:51:53.974Z,100.00
2022-12-25T05:54:20.759Z,100.00
2022-12-25T05:56:49.278Z,100.00
2022-12-25T05:59:15.664Z,100.00
2022-12-25T06:01:42.212Z,100.00
2022-12-25T06:04:12.736Z,100.00
2022-12-25T06:06:39.604Z,100.00
2022-12-25T06:09:06.027Z,100.00
2022-12-25T06:11:32.600Z,100.00
2022-12-25T06:13:58.978Z,100.00
2022-12-25T06:16:25.461Z,100.00
2022-12-25T06:18:52.412Z,100.00
2022-12-25T06:21:18.901Z,100.00
2022-12-25T06:23:45.411Z,100.00
2022-12-25T06:26:14.399Z,100.00
2022-12-25T06:28:41.039Z,100.00
2022-12-25T06:31:07.973Z,100.00
2022-12-25T06:33:34.579Z,100.00
2022-12-25T06:36:33.793Z,100.00
2022-12-25T06:39:01.139Z,100.00
2022-12-25T06:41:28.732Z,100.00
2022-12-25T06:43:57.834Z,100.00
2022-12-25T06:46:26.231Z,100.00
2022-12-25T06:48:52.858Z,100.00
2022-12-25T06:51:21.601Z,100.00
2022-12-25T06:53:49.142Z,100.00
2022-12-25T06:56:18.750Z,100.00
2022-12-25T06:58:59.611Z,100.00
2022-12-25T07:01:30.253Z,100.00
2022-12-25T07:03:59.059Z,100.00
2022-12-25T07:06:25.840Z,100.00
2022-12-25T07:08:52.645Z,100.00
2022-12-25T07:11:19.325Z,100.00
2022-12-25T07:13:46.086Z,100.00
2022-12-25T07:16:13.179Z,100.00
2022-12-25T07:18:40.115Z,100.00
2022-12-25T07:21:15.141Z,100.00
2022-12-25T07:23:42.617Z,100.00
2022-12-25T07:26:10.657Z,100.00
2022-12-25T07:28:37.268Z,100.00
2022-12-25T07:31:06.220Z,100.00
2022-12-25T07:33:33.298Z,100.00
2022-12-25T07:36:00.114Z,100.00
2022-12-25T07:38:26.871Z,100.00
2022-12-25T07:40:53.542Z,100.00
2022-12-25T07:43:20.353Z,100.00
2022-12-25T07:45:46.965Z,100.00
2022-12-25T07:48:16.648Z,100.00
2022-12-25T07:50:43.618Z,100.00
2022-12-25T07:53:10.110Z,100.00
2022-12-25T07:55:36.533Z,100.00
2022-12-25T07:58:03.034Z,100.00
2022-12-25T08:00:33.310Z,100.00
2022-12-25T08:03:00.004Z,100.00
2022-12-25T08:05:26.865Z,100.00
2022-12-25T08:07:57.592Z,100.00
2022-12-25T08:10:24.632Z,100.00
2022-12-25T08:12:51.971Z,100.00
2022-12-25T08:15:18.475Z,100.00
2022-12-25T08:17:44.846Z,100.00
2022-12-25T08:20:11.660Z,100.00
2022-12-25T08:22:38.062Z,100.00
2022-12-25T08:25:04.863Z,100.00
2022-12-25T08:27:31.374Z,100.00
2022-12-25T08:29:57.838Z,100.00
2022-12-25T08:32:24.267Z,100.00
2022-12-25T08:34:50.767Z,100.00
2022-12-25T08:37:17.209Z,100.00
2022-12-25T08:39:43.592Z,100.00
2022-12-25T08:42:10.039Z,100.00
2022-12-25T08:44:36.455Z,100.00
2022-12-25T08:47:02.832Z,100.00
2022-12-25T08:49:29.414Z,100.00
2022-12-25T08:51:56.257Z,100.00
2022-12-25T08:54:22.811Z,100.00
2022-12-25T08:56:49.222Z,100.00
2022-12-25T08:59:15.679Z,100.00
2022-12-25T09:01:42.226Z,100.00
2022-12-25T09:04:08.711Z,100.00
2022-12-25T09:06:35.133Z,100.00
2022-12-25T09:09:01.526Z,100.00
2022-12-25T09:11:28.070Z,100.00
2022-12-25T09:13:54.482Z,100.00
2022-12-25T09:16:22.130Z,100.00
2022-12-25T09:18:50.658Z,100.00
2022-12-25T09:21:17.373Z,100.00
2022-12-25T09:23:44.266Z,100.00
2022-12-25T09:26:14.111Z,100.00
2022-12-25T09:28:50.340Z,100.00
2022-12-25T09:31:18.313Z,100.00
2022-12-25T09:33:44.775Z,100.00
2022-12-25T09:36:11.396Z,100.00
2022-12-25T09:38:37.923Z,100.00
2022-12-25T09:41:31.658Z,100.00
2022-12-25T09:44:01.437Z,100.00
2022-12-25T09:46:36.471Z,100.00
2022-12-25T09:49:07.950Z,100.00
2022-12-25T09:51:35.857Z,100.00
2022-12-25T09:54:30.587Z,100.00
2022-12-25T09:56:57.485Z,100.00
2022-12-25T09:59:25.421Z,100.00
2022-12-25T10:02:10.494Z,100.00
2022-12-25T10:04:51.480Z,100.00
2022-12-25T10:07:30.816Z,100.00
2022-12-25T10:10:04.606Z,100.00
2022-12-25T10:13:09.642Z,100.00
2022-12-25T10:16:18.123Z,100.00
2022-12-25T10:19:06.425Z,100.00
2022-12-25T10:21:32.987Z,100.00
2022-12-25T10:24:07.362Z,100.00
2022-12-25T10:26:34.422Z,100.00
2022-12-25T10:29:11.765Z,100.00
2022-12-25T10:31:38.333Z,100.00
2022-12-25T10:34:06.076Z,100.00
2022-12-25T10:36:33.145Z,100.00
2022-12-25T10:38:59.569Z,100.00
2022-12-25T10:41:32.200Z,100.00
2022-12-25T11:00:33.164Z,100.00
2022-12-25T11:03:00.059Z,100.00
2022-12-25T11:05:28.437Z,100.00
2022-12-25T11:07:55.978Z,100.00
2022-12-25T11:10:38.500Z,100.00
2022-12-25T11:13:07.635Z,100.00
2022-12-25T11:15:45.005Z,100.00
2022-12-25T11:18:21.688Z,100.00
2022-12-25T11:21:14.808Z,100.00
2022-12-25T11:23:49.087Z,100.00
2022-12-25T11:26:17.514Z,100.00
2022-12-25T11:28:45.415Z,100.00
2022-12-25T11:31:19.212Z,100.00
2022-12-25T11:34:05.931Z,100.00
2022-12-25T11:36:50.021Z,100.00
2022-12-25T11:39:29.638Z,100.00
2022-12-25T11:42:02.563Z,100.00
2022-12-25T11:44:45.620Z,100.00
2022-12-25T11:47:19.779Z,100.00
2022-12-25T11:49:57.383Z,100.00
2022-12-25T11:52:29.411Z,100.00
2022-12-25T11:55:03.199Z,99.64
2022-12-25T11:57:30.781Z,99.60
2022-12-25T12:00:06.788Z,99.94
2022-12-25T12:02:39.068Z,99.44
2022-12-25T12:05:21.259Z,99.61
2022-12-25T12:07:54.863Z,99.68
2022-12-25T12:10:24.662Z,99.35
2022-12-25T12:12:57.928Z,98.54
2022-12-25T12:15:31.183Z,98.68
2022-12-25T12:18:28.491Z,98.53
2022-12-25T12:21:16.241Z,98.35
2022-12-25T12:23:57.278Z,98.29
2022-12-25T12:26:26.034Z,98.21
2022-12-25T12:28:57.515Z,98.54
2022-12-25T12:31:24.606Z,97.79
2022-12-25T12:33:56.629Z,96.46
2022-12-25T12:36:35.547Z,96.29
2022-12-25T12:39:04.986Z,96.49
2022-12-25T12:41:48.173Z,95.89
2022-12-25T12:44:16.642Z,96.04
2022-12-25T12:46:57.049Z,95.97
2022-12-25T12:49:28.942Z,96.10
2022-12-25T12:52:28.992Z,96.28
2022-12-25T12:54:59.646Z,95.09
2022-12-25T12:57:29.772Z,95.64
2022-12-25T12:59:57.442Z,95.04
2022-12-25T13:03:01.012Z,95.30
2022-12-25T13:05:45.975Z,95.13
2022-12-25T13:08:27.686Z,94.79
2022-12-25T13:11:19.720Z,95.07
2022-12-25T13:13:47.480Z,94.66
2022-12-25T13:16:37.218Z,94.56
2022-12-25T13:19:24.905Z,94.85
2022-12-25T13:22:03.198Z,94.76
2022-12-25T13:24:35.374Z,94.33
2022-12-25T13:27:15.858Z,94.95
2022-12-25T13:29:42.503Z,94.79
2022-12-25T13:32:19.426Z,94.32
2022-12-25T13:34:45.907Z,94.33
2022-12-25T13:37:16.893Z,94.46
2022-12-25T13:39:57.991Z,94.87
2022-12-25T13:42:30.541Z,95.03
2022-12-25T13:44:58.995Z,94.73
2022-12-25T13:47:30.551Z,94.38
2022-12-25T13:49:58.497Z,95.41
2022-12-25T13:52:34.972Z,94.41
2022-12-25T13:55:23.075Z,95.13
2022-12-25T13:57:51.909Z,94.84
2022-12-25T14:00:21.674Z,94.67
2022-12-25T14:02:48.539Z,95.41
2022-12-25T14:05:42.189Z,95.40
2022-12-25T14:08:15.202Z,95.19
2022-12-25T14:10:41.765Z,94.89
2022-12-25T14:13:12.271Z,94.77
2022-12-25T14:15:39.913Z,95.03
2022-12-25T14:18:06.894Z,94.61
2022-12-25T14:20:57.041Z,94.41
2022-12-25T14:23:23.629Z,94.60
2022-12-25T14:25:50.084Z,94.06
2022-12-25T14:28:22.438Z,94.41
2022-12-25T14:30:49.248Z,94.30
2022-12-25T14:33:18.353Z,94.82
2022-12-25T14:35:44.974Z,94.51
2022-12-25T14:38:24.691Z,94.65
2022-12-25T14:41:16.915Z,94.78
2022-12-25T14:43:53.461Z,94.56
2022-12-25T14:46:26.055Z,94.85
2022-12-25T14:49:00.572Z,95.08
2022-12-25T14:51:27.573Z,95.04
2022-12-25T14:53:56.130Z,95.00
2022-12-25T14:56:24.659Z,95.07
2022-12-25T14:58:54.577Z,95.41
2022-12-25T15:01:24.172Z,95.21
2022-12-25T15:03:50.817Z,95.35
2022-12-25T15:06:20.934Z,95.18
2022-12-25T15:08:59.475Z,95.02
2022-12-25T15:11:26.113Z,95.22
2022-12-25T15:13:52.735Z,95.22
2022-12-25T15:16:22.641Z,95.28
2022-12-25T15:18:50.014Z,95.16
2022-12-25T15:21:29.101Z,95.32
2022-12-25T15:23:57.459Z,95.26
2022-12-25T15:26:24.893Z,95.78
2022-12-25T15:28:51.493Z,96.09
2022-12-25T15:31:30.186Z,97.12
2022-12-25T15:33:58.624Z,96.99
2022-12-25T15:36:25.947Z,97.42
2022-12-25T15:38:52.952Z,96.96
2022-12-25T15:41:42.694Z,97.10
2022-12-25T15:44:11.453Z,96.67
2022-12-25T15:46:37.930Z,97.07
2022-12-25T15:49:04.637Z,96.64
2022-12-25T15:51:31.252Z,96.59
2022-12-25T15:53:58.933Z,96.84
2022-12-25T15:56:26.212Z,96.09
2022-12-25T15:58:52.668Z,96.34
2022-12-25T16:01:20.363Z,95.88
2022-12-25T16:03:47.337Z,95.96
2022-12-25T16:06:16.243Z,95.90
2022-12-25T16:08:43.258Z,96.22
2022-12-25T16:11:10.084Z,96.98
2022-12-25T16:13:36.948Z,97.75
2022-12-25T16:16:04.130Z,96.73
2022-12-25T16:18:30.641Z,97.02
2022-12-25T16:20:58.098Z,97.25
2022-12-25T16:23:24.678Z,97.25
2022-12-25T16:25:51.130Z,98.11
2022-12-25T16:28:17.549Z,97.78
2022-12-25T16:30:44.001Z,98.02
2022-12-25T16:33:11.191Z,97.91
2022-12-25T16:35:37.647Z,98.42
2022-12-25T16:38:04.084Z,98.63
2022-12-25T16:40:31.461Z,98.75
2022-12-25T16:43:01.009Z,98.88
2022-12-25T16:45:27.436Z,99.03
2022-12-25T16:47:53.919Z,99.46
2022-12-25T16:50:20.440Z,98.67
2022-12-25T16:52:46.825Z,98.53
2022-12-25T16:55:13.601Z,98.29
2022-12-25T16:57:40.101Z,97.95
2022-12-25T17:00:07.100Z,97.73
2022-12-25T17:02:33.596Z,97.95
2022-12-25T17:05:02.832Z,97.75
2022-12-25T17:07:29.214Z,97.64
2022-12-25T17:09:57.117Z,97.56
2022-12-25T17:12:23.587Z,97.55
2022-12-25T17:14:50.244Z,97.47
2022-12-25T17:17:16.696Z,97.76
2022-12-25T17:19:43.172Z,97.91
2022-12-25T17:22:09.578Z,97.40
2022-12-25T17:24:37.303Z,97.66
2022-12-25T17:27:03.814Z,97.40
2022-12-25T17:29:31.811Z,97.49
2022-12-25T17:31:58.357Z,97.11
2022-12-25T17:34:24.805Z,97.48
2022-12-25T17:36:52.827Z,97.67
2022-12-25T17:39:19.450Z,97.58
2022-12-25T17:41:45.837Z,97.84
2022-12-25T17:44:12.273Z,97.41
2022-12-25T17:46:38.855Z,97.38
2022-12-25T17:49:05.668Z,97.29
2022-12-25T17:51:32.502Z,97.62
2022-12-25T17:54:02.939Z,97.17
2022-12-25T17:56:29.899Z,96.45
2022-12-25T17:58:58.460Z,96.45
2022-12-25T18:01:26.221Z,97.08
2022-12-25T18:03:53.256Z,96.63
2022-12-25T18:06:22.070Z,96.40
2022-12-25T18:08:49.565Z,96.36
2022-12-25T18:11:21.469Z,95.68
2022-12-25T18:13:51.652Z,95.62
2022-12-25T18:16:19.945Z,96.00
2022-12-25T18:18:51.818Z,95.61
2022-12-25T18:21:20.077Z,95.93
2022-12-25T18:23:46.672Z,96.13
2022-12-25T18:26:13.260Z,96.13
2022-12-25T18:28:39.864Z,95.45
2022-12-25T18:31:19.471Z,95.46
2022-12-25T18:33:46.209Z,94.83
2022-12-25T18:36:14.201Z,94.71
2022-12-25T18:38:40.688Z,94.66
2022-12-25T18:41:08.586Z,94.21
2022-12-25T18:43:54.283Z,94.70
2022-12-25T18:46:24.560Z,94.62
2022-12-25T18:48:51.795Z,94.41
2022-12-25T18:51:18.325Z,94.04
2022-12-25T18:53:44.840Z,94.38
2022-12-25T18:56:15.125Z,94.16
2022-12-25T18:58:41.859Z,94.45
2022-12-25T19:01:20.259Z,94.13
2022-12-25T19:03:48.749Z,94.16
2022-12-25T19:06:19.269Z,94.56
2022-12-25T19:08:46.107Z,94.40
2022-12-25T19:11:13.059Z,93.55
2022-12-25T19:13:39.495Z,94.43
2022-12-25T19:16:06.146Z,93.93
2022-12-25T19:18:32.596Z,94.59
2022-12-25T19:21:07.666Z,93.99
2022-12-25T19:23:34.499Z,94.24
2022-12-25T19:26:00.949Z,94.10
2022-12-25T19:28:27.414Z,94.49
2022-12-25T19:30:54.275Z,94.48
2022-12-25T19:33:21.672Z,94.11
2022-12-25T19:35:48.951Z,94.58
2022-12-25T19:38:15.935Z,94.31
2022-12-25T19:41:00.131Z,94.13
2022-12-25T19:43:28.910Z,94.61
2022-12-25T19:45:56.941Z,94.19
2022-12-25T19:48:23.866Z,94.35
2022-12-25T19:50:50.943Z,93.93
2022-12-25T19:53:18.263Z,94.10
2022-12-25T19:55:45.403Z,94.31
2022-12-25T19:58:12.174Z,93.78
2022-12-25T20:00:40.274Z,94.17
2022-12-25T20:03:06.804Z,94.27
2022-12-25T20:05:33.341Z,94.18
2022-12-25T20:07:59.737Z,94.26
2022-12-25T20:10:26.268Z,94.39
2022-12-25T20:12:53.217Z,94.19
2022-12-25T20:15:19.859Z,94.93
2022-12-25T20:17:47.231Z,94.80
2022-12-25T20:20:13.918Z,94.63
2022-12-25T20:22:40.398Z,94.97
2022-12-25T20:25:09.056Z,95.72
2022-12-25T20:27:35.627Z,94.62
2022-12-25T20:30:02.171Z,94.53
2022-12-25T20:32:29.291Z,95.11
2022-12-25T20:34:55.680Z,95.31
2022-12-25T20:37:22.099Z,94.87
2022-12-25T20:39:48.506Z,94.79
2022-12-25T20:42:14.944Z,94.76
2022-12-25T20:44:41.323Z,94.36
2022-12-25T20:47:08.103Z,94.06
2022-12-25T20:49:34.728Z,94.29
2022-12-25T20:52:05.257Z,94.04
2022-12-25T20:54:32.353Z,94.04
2022-12-25T20:56:58.761Z,93.96
2022-12-25T20:59:25.513Z,94.44
2022-12-25T21:01:54.340Z,94.32
2022-12-25T21:04:20.871Z,94.64
2022-12-25T21:06:47.306Z,94.50
2022-12-25T21:09:13.815Z,93.71
2022-12-25T21:11:40.341Z,93.90
2022-12-25T21:14:06.914Z,94.04
2022-12-25T21:16:33.649Z,94.92
2022-12-25T21:19:00.140Z,94.33
2022-12-25T21:21:35.893Z,93.53
2022-12-25T21:24:02.284Z,93.73
2022-12-25T21:26:31.289Z,92.56
2022-12-25T21:29:00.280Z,93.27
2022-12-25T21:31:27.334Z,93.22
2022-12-25T21:33:55.305Z,93.26
2022-12-25T21:36:30.456Z,93.66
2022-12-25T21:38:59.044Z,94.26
2022-12-25T21:41:26.612Z,92.78
2022-12-25T21:43:53.071Z,92.29
2022-12-25T21:46:23.920Z,92.03
2022-12-25T21:48:50.453Z,92.99
2022-12-25T21:51:39.712Z,92.03
2022-12-25T21:54:07.344Z,92.72
2022-12-25T21:56:41.334Z,92.61
2022-12-25T21:59:11.362Z,92.75
2022-12-25T22:01:38.218Z,92.89
2022-12-25T22:04:07.081Z,92.72
2022-12-25T22:06:52.658Z,93.13
2022-12-25T22:09:19.194Z,93.16
2022-12-25T22:12:04.357Z,92.76
2022-12-25T22:14:52.215Z,92.93
2022-12-25T22:17:43.480Z,92.50
2022-12-25T22:20:13.311Z,92.58
2022-12-25T22:22:39.843Z,91.94
2022-12-25T22:25:07.009Z,92.07
2022-12-25T22:27:35.667Z,91.84
2022-12-25T22:30:02.104Z,92.51
2022-12-25T22:32:28.665Z,91.73
2022-12-25T22:34:55.150Z,91.99
2022-12-25T22:37:23.961Z,91.35
2022-12-25T22:39:50.365Z,92.68
2022-12-25T22:42:17.148Z,91.56
2022-12-25T22:44:44.095Z,91.73
2022-12-25T22:47:10.555Z,92.34
2022-12-25T22:49:37.146Z,92.08
2022-12-25T22:52:03.949Z,91.91
2022-12-25T22:54:31.573Z,92.31
2022-12-25T22:56:58.277Z,92.33
2022-12-25T22:59:25.184Z,92.53
2022-12-25T23:01:51.770Z,92.29
2022-12-25T23:04:18.379Z,92.26
2022-12-25T23:06:44.995Z,92.02
2022-12-25T23:09:16.357Z,92.01
2022-12-25T23:11:46.968Z,92.17
2022-12-25T23:14:31.935Z,92.12
2022-12-25T23:17:00.243Z,91.90
2022-12-25T23:19:45.316Z,91.48
2022-12-25T23:22:30.868Z,92.04
2022-12-25T23:25:16.182Z,92.41
2022-12-25T23:27:43.904Z,91.71
2022-12-25T23:30:16.203Z,92.01
2022-12-25T23:32:44.393Z,91.99
2022-12-25T23:35:11.326Z,92.07
2022-12-25T23:37:37.753Z,91.66
2022-12-25T23:40:05.115Z,91.82
2022-12-25T23:42:31.566Z,92.31
2022-12-25T23:44:57.987Z,91.86
2022-12-25T23:47:24.411Z,92.24
2022-12-25T23:49:50.837Z,91.36
2022-12-25T23:52:17.286Z,91.48
2022-12-25T23:54:43.742Z,90.90
2022-12-25T23:57:10.163Z,91.61
2022-12-25T23:59:36.631Z,92.54
